• Join FlightAware (Why Join?)
  • Login
  • US Flag 
08:10AM EDT


 

Airport Tracker/Info


-or-


 

Live Flight TrackerFlight Track Log ✈ N35407 ✈ 13-Apr-2013 ✈ KSAN - KIAH

Flight Track Log - Related Links

Times and Time Zones

All times are in EDT time to prevent confusion due to time zone crossing. See the N35407 flight status page for this flight to view local times or setup timezone preferences in your user account.

Time Position Orientation Groundspeed Altitude Reporting Facility
EDT Latitude Longitude Course Direction KTS MPH feet Rate Location/Type
04:27PM 32.7561 -117.3019 281° West 255 293 3,400  Level Los Angeles Center
04:28PM 32.6125 -117.0519 102° East  Level FlightAware Approximate
04:28PM 32.6969 -117.3169 192° South 256 295 6,600  Level Los Angeles Center
04:29PM 32.6050 -116.9123 84° East  Level FlightAware Approximate
04:29PM 32.6514 -117.2486 128° Southeast 268 308 9,500  Level Los Angeles Center
04:30PM 32.6167 -116.7716 90° East  Level FlightAware Approximate
04:30PM 32.6358 -117.1469 100° East 296 341 11,000  Level Los Angeles Center
04:31PM 32.6334 -116.6329 77° East  Level FlightAware Approximate
04:31PM 32.6144 -117.0003 100° East 349 402 13,300  Level Los Angeles Center
04:32PM 32.6211 -116.8658 87° East 391 450 15,500 2,040 Climbing Los Angeles Center
04:33PM 32.6347 -116.7308 83° East 412 474 17,600 2,040 Climbing Los Angeles Center
04:34PM 32.6481 -116.5917 83° East 424 488 19,800 1,860 Climbing Los Angeles Center
04:35PM 32.6611 -116.4497 84° East 434 499 21,500 1,740 Climbing Los Angeles Center
04:36PM 32.6786 -116.2719 83° East 458 527 23,500 1,680 Climbing Los Angeles Center
04:37PM 32.6931 -116.1206 83° East 467 537 25,000 1,200 Climbing Los Angeles Center
04:38PM 32.7047 -115.9967 84° East 473 544 26,000 1,140 Climbing Los Angeles Center
04:39PM 32.7225 -115.8031 84° East 494 568 27,400 1,620 Climbing Los Angeles Center
04:40PM 32.7369 -115.6425 84° East 492 566 29,400 1,740 Climbing Los Angeles Center
04:41PM 32.7497 -115.4861 84° East 482 555 31,000 720 Climbing Los Angeles Center
04:42PM 32.7531 -115.2958 89° East 482 555 30,900  Descending Los Angeles Center
04:43PM 32.7600 -115.1361 87° East 484 557 31,000 780 Climbing Los Angeles Center
04:44PM 32.7625 -114.9794 89° East 476 548 32,600 1,380 Climbing Los Angeles Center
04:45PM 32.7664 -114.8281 88° East 460 529 33,900 960 Climbing Los Angeles Center
04:46PM 32.7703 -114.6761 88° East 462 532 34,600 480 Climbing Los Angeles Center
04:47PM 32.7731 -114.5211 89° East 468 539 35,000 180 Climbing Los Angeles Center
04:48PM 32.7742 -114.3622 89° East 480 552 35,000 -60 Level Los Angeles Center
04:49PM 32.7764 -114.1711 89° East 482 555 34,900  Descending Los Angeles Center
04:50PM 32.7772 -114.0967 89° East 482 555 35,000  Climbing Albuquerque Center
04:51PM 32.7814 -113.9369 88° East 482 555 34,900  Descending Albuquerque Center
04:52PM 32.8056 -113.7800 80° East 480 552 35,000  Climbing Albuquerque Center
04:53PM 32.8328 -113.5925 80° East 479 551 35,000  Level Albuquerque Center
04:54PM 32.8550 -113.4361 80° East 479 551 35,000 -60 Level Albuquerque Center
04:55PM 32.8756 -113.2803 81° East 475 547 34,900 -60 Descending Albuquerque Center
04:56PM 32.8975 -113.1244 80° East 475 547 34,900  Level Albuquerque Center
04:57PM 32.9169 -112.9681 82° East 474 545 35,000  Climbing Albuquerque Center
04:58PM 32.9372 -112.8108 81° East 476 548 35,000  Level Albuquerque Center
04:59PM 32.9508 -112.6533 84° East 477 549 35,000  Level Albuquerque Center
05:00PM 32.9278 -112.4911 100° East 495 570 35,000  Level Albuquerque Center
05:01PM 32.9036 -112.3283 100° East 498 573 35,000  Level Albuquerque Center
05:02PM 32.8750 -112.1392 100° East 498 573 35,000  Level Albuquerque Center
05:03PM 32.8503 -111.9811 101° East 493 567 35,000  Level Albuquerque Center
05:05PM 32.8212 -111.7971 101° East  Level FlightAware Approximate
05:05PM 32.8003 -111.6600 101° East 496 571 35,000  Level Albuquerque Center
05:06PM 32.7750 -111.5019 101° East 492 566 35,000  Level Albuquerque Center
05:07PM 32.7503 -111.3444 101° East 488 562 35,000  Level Albuquerque Center
05:08PM 32.7183 -111.1561 101° East 488 562 35,000  Level Albuquerque Center
05:09PM 32.6925 -110.9975 101° East 491 565 35,000  Level Albuquerque Center
05:10PM 32.6661 -110.8372 101° East 495 570 35,000  Level Albuquerque Center
05:11PM 32.6394 -110.6775 101° East 496 571 35,000  Level Albuquerque Center
05:13PM 32.6108 -110.5189 102° East 495 570 35,000  Level Albuquerque Center
05:14PM 32.5847 -110.3581 101° East 498 573 35,000  Level Albuquerque Center
05:15PM 32.5553 -110.1872 102° East 495 570 35,000  Level Albuquerque Center
05:16PM 32.5275 -110.0283 102° East 496 571 35,000  Level Albuquerque Center
05:17PM 32.5003 -109.8717 102° East 493 567 35,000  Level Albuquerque Center
05:18PM 32.4664 -109.6819 102° East 496 571 35,000  Level Albuquerque Center
05:19PM 32.4367 -109.5244 103° East 497 572 35,000  Level Albuquerque Center
05:20PM 32.4092 -109.3697 102° East 491 565 35,000  Level Albuquerque Center
05:21PM 32.3822 -109.2158 102° East 488 562 35,000  Level Albuquerque Center
05:22PM 32.3539 -109.0606 102° East 490 564 35,000  Level Albuquerque Center
05:23PM 32.3192 -108.8767 103° East 487 560 35,000  Level Albuquerque Center
05:24PM 32.2928 -108.7236 101° East 484 557 35,000  Level Albuquerque Center
05:25PM 32.2642 -108.5728 103° East 480 552 35,000 -60 Level Albuquerque Center
05:26PM 32.2358 -108.4200 102° East 479 551 34,900 -60 Descending Albuquerque Center
05:27PM 32.2067 -108.2667 103° East 480 552 34,900  Level Albuquerque Center
05:28PM 32.1775 -108.1153 103° East 476 548 35,000  Climbing Albuquerque Center
05:29PM 32.1439 -107.9336 102° East 474 545 35,000  Level Albuquerque Center
05:30PM 32.1153 -107.7825 103° East 475 547 35,000 -60 Level Albuquerque Center
05:31PM 32.0856 -107.6314 103° East 476 548 34,900 -60 Descending Albuquerque Center
05:32PM 32.0561 -107.4814 103° East 475 547 34,900  Level Albuquerque Center
05:33PM 32.0289 -107.3308 102° East 475 547 34,900  Level Albuquerque Center
05:34PM 31.9992 -107.1808 103° East 474 545 34,900  Level Albuquerque Center
05:35PM 31.9633 -107.0028 103° East 472 543 35,000  Climbing Albuquerque Center
05:36PM 31.9342 -106.8550 103° East 469 540 35,000 -60 Level Albuquerque Center
05:37PM 31.9042 -106.7089 104° East 465 535 34,900 480 Descending Albuquerque Center
05:38PM 31.8736 -106.5628 104° East 462 532 36,100 960 Climbing Albuquerque Center
05:39PM 31.8406 -106.3944 103° East 461 531 36,900 360 Climbing Albuquerque Center
05:40PM 31.8108 -106.2508 104° East 456 525 36,900  Level Albuquerque Center
05:41PM 31.7728 -106.1092 108° East 454 522 36,900  Level Albuquerque Center
05:42PM 31.7367 -105.9664 107° East 456 525 37,000  Climbing Albuquerque Center
05:43PM 31.7003 -105.8231 107° East 457 526 36,900  Descending Albuquerque Center
05:44PM 31.6644 -105.6800 106° East 457 526 37,000  Climbing Albuquerque Center
05:45PM 31.6278 -105.5342 106° East 465 535 37,000 -60 Level Albuquerque Center
05:46PM 31.5914 -105.3872 106° East 468 539 36,900 -60 Descending Albuquerque Center
05:47PM 31.5531 -105.2392 107° East 471 542 36,900  Level Albuquerque Center
05:48PM 31.5081 -105.0597 106° East 475 547 37,000  Climbing Albuquerque Center
05:49PM 31.4697 -104.9081 106° East 479 551 37,000  Level Albuquerque Center
05:50PM 31.4303 -104.7572 107° East 481 554 37,000 -60 Level Albuquerque Center
05:52PM 31.3911 -104.6092 107° East 479 551 36,900  Descending Albuquerque Center
05:53PM 31.3528 -104.4614 107° East 476 548 37,000  Climbing Albuquerque Center
05:54PM 31.3147 -104.3133 107° East 474 545 36,900  Descending Albuquerque Center
05:55PM 31.2750 -104.1628 107° East 481 554 37,000  Climbing Albuquerque Center
05:56PM 31.2358 -104.0125 107° East 483 556 37,000 -60 Level Albuquerque Center
05:57PM 31.1956 -103.8625 107° East 482 555 36,900  Descending Albuquerque Center
05:58PM 31.1461 -103.6875 108° East 485 558 37,000  Climbing Albuquerque Center
05:59PM 31.1047 -103.5367 108° East 487 560 37,000  Level Albuquerque Center
06:00PM 31.0631 -103.3858 108° East 489 563 37,000  Level Albuquerque Center
06:01PM 31.0219 -103.2328 107° East 495 570 37,000 -60 Level Albuquerque Center
06:02PM 30.9808 -103.0839 108° East 487 560 36,900  Descending Albuquerque Center
06:03PM 30.9403 -102.9347 108° East 484 557 37,000  Climbing Albuquerque Center
06:04PM 30.8928 -102.7478 106° East 500 575 37,000  Level Albuquerque Center
06:05PM 30.8528 -102.5933 107° East 503 579 37,000  Level Albuquerque Center
06:06PM 30.8122 -102.4422 107° East 499 574 37,000  Level Albuquerque Center
06:07PM 30.7733 -102.2903 107° East 496 571 37,000 -60 Level Albuquerque Center
06:08PM 30.7333 -102.1392 107° East 495 570 36,900  Descending Albuquerque Center
06:09PM 30.6922 -101.9869 107° East 495 570 37,000  Climbing Albuquerque Center
06:10PM 30.6439 -101.8039 107° East 497 572 36,900  Descending Albuquerque Center
06:12PM 30.5864 -101.5906 107° East 500 575 37,000  Climbing Houston Center
06:13PM 30.5439 -101.4356 108° East 501 577 36,900 -60 Descending Houston Center
06:14PM 30.4950 -101.2497 107° East 502 578 36,900  Level Houston Center
06:15PM 30.4553 -101.0975 107° East 500 575 37,000  Climbing Houston Center
06:16PM 30.4128 -100.9456 108° East 497 572 37,000 -60 Level Houston Center
06:17PM 30.3703 -100.7961 108° East 491 565 36,900 -60 Descending Houston Center
06:18PM 30.3289 -100.6472 108° East 487 560 36,900  Level Houston Center
06:19PM 30.2878 -100.4994 108° East 484 557 37,000  Climbing Houston Center
06:20PM 30.2469 -100.3508 108° East 481 554 36,900  Descending Houston Center
06:21PM 30.2050 -100.1989 108° East 487 560 37,000  Climbing Houston Center
06:22PM 30.1617 -100.0456 108° East 492 566 36,900 -540 Descending Houston Center
06:23PM 30.1100 -99.8633 108° East 493 567 36,000 -480 Descending Houston Center
06:24PM 30.0669 -99.7131 108° East 492 566 36,000  Level Houston Center
06:25PM 30.0222 -99.5622 109° East 495 570 36,000 -60 Level Houston Center
06:26PM 29.9794 -99.4111 108° East 498 573 35,900  Descending Houston Center
06:27PM 29.9367 -99.2600 108° East 497 572 36,000  Climbing Houston Center
06:28PM 29.8861 -99.1125 112° Southeast 494 568 35,900  Descending Houston Center
06:29PM 29.8258 -98.9508 113° Southeast 490 564 36,000  Climbing Houston Center
06:30PM 29.7683 -98.7956 113° Southeast 491 565 36,000  Level Houston Center
06:31PM 29.7150 -98.6525 113° Southeast 487 560 36,000 -60 Level Houston Center
06:32PM 29.6619 -98.5092 113° Southeast 484 557 35,900 -540 Descending Houston Center
06:33PM 29.6461 -98.3439 96° East 519 597 35,000 -480 Descending Houston Center
06:34PM 29.6486 -98.1647 89° East 520 598 35,000  Level Houston Center
06:35PM 29.6503 -97.9986 89° East 520 598 35,000 -360 Level Houston Center
06:36PM 29.6525 -97.8300 89° East 521 600 34,300 -840 Descending Houston Center
06:37PM 29.6547 -97.6550 89° East 523 602 33,300 -1,140 Descending Houston Center
06:38PM 29.6558 -97.4908 90° East 515 593 32,000 -2,100 Descending Houston Center
06:39PM 29.6578 -97.3283 89° East 510 587 29,000 -2,700 Descending Houston Center
06:40PM 29.6592 -97.1675 89° East 505 581 26,500 -2,400 Descending Houston Center
06:41PM 29.6503 -97.0158 94° East 475 547 24,200 -2,340 Descending Houston Center
06:42PM 29.6333 -96.8719 98° East 453 521 21,800 -2,340 Descending Houston Center
06:43PM 29.6164 -96.7339 98° East 435 501 19,500 -2,280 Descending Houston Center
06:44PM 29.6000 -96.6011 98° East 420 483 17,200 -2,460 Descending Houston Center
06:45PM 29.5925 -96.5478 99° East 407 468 16,200 -2,280 Descending Houston Center
06:45PM 29.5842 -96.4750 97° East 400 460 14,900 -2,280 Descending Houston Center
06:46PM 29.5753 -96.4178 100° East 392 451 13,900 -2,220 Descending Houston Center
06:46PM 29.5681 -96.3525 97° East 390 449 12,700 -2,220 Descending Houston Center
06:47PM 29.5608 -96.2969 98° East 378 435 11,700 -2,040 Descending Houston Center
06:47PM 29.5522 -96.2358 99° East 371 427 10,600 -1,680 Descending Houston Center
06:48PM 29.5469 -96.1833 97° East 359 413 10,000 -720 Descending Houston Center
06:49PM 29.5642 -96.1297 70° East 349 402 9,900  Descending Houston Center
06:49PM 29.5850 -96.0878 60° Northeast 328 377 10,000  Climbing Houston Center
06:50PM 29.6194 -96.0189 60° Northeast 334 384 9,900  Descending Houston Center
06:50PM 29.6333 -95.9933 58° Northeast 336 387 10,000 -300 Climbing Houston Center
06:51PM 29.6653 -95.9336 58° Northeast 336 387 9,600 -780 Descending Houston Center
06:52PM 29.7367 -95.8764 35° Northeast 312 359 8,700 -1,080 Descending Houston Center
06:52PM 29.7642 -95.8558 33° Northeast 294 338 8,200 -1,380 Descending Houston Center
06:53PM 29.8031 -95.8203 38° Northeast 300 345 7,300 -1,320 Descending Houston Center
06:53PM 29.8258 -95.7933 46° Northeast 290 334 6,900 -540 Descending Houston Center
06:54PM 29.8592 -95.7583 42° Northeast 282 325 6,800 -540 Descending Houston Center
06:55PM 29.9067 -95.7061 44° Northeast 245 282 6,000 -960 Descending Houston Center
06:55PM 29.9272 -95.6828 45° Northeast 219 252 5,600 -1,200 Descending Houston Center
06:56PM 29.9547 -95.6531 43° Northeast 200 230 4,800 -1,140 Descending Houston Center
06:56PM 29.9656 -95.6422 41° Northeast 186 214 4,500 -1,140 Descending Houston Center
06:57PM 29.9917 -95.6100 47° Northeast 190 219 3,700 -1,140 Descending Houston Center
06:57PM 29.9906 -95.5933 94° East 176 203 3,400 -720 Descending Houston Center
06:58PM 29.9939 -95.5542 84° East 179 206 3,000 -540 Descending Houston Center